sensor_id;sensor_type;location;lat;lon;timestamp;P1;durP1;ratioP1;P2;durP2;ratioP2
55455;SDS011;63021;52.836;6.376;2023-04-05T00:00:35;8.50;;;5.22;;
55455;SDS011;63021;52.836;6.376;2023-04-05T00:03:00;8.35;;;5.22;;
55455;SDS011;63021;52.836;6.376;2023-04-05T00:05:27;9.48;;;5.25;;
55455;SDS011;63021;52.836;6.376;2023-04-05T00:07:58;8.90;;;5.25;;
55455;SDS011;63021;52.836;6.376;2023-04-05T00:10:29;9.40;;;5.45;;
55455;SDS011;63021;52.836;6.376;2023-04-05T00:12:55;9.73;;;5.90;;
55455;SDS011;63021;52.836;6.376;2023-04-05T00:15:21;10.55;;;5.75;;
55455;SDS011;63021;52.836;6.376;2023-04-05T00:17:47;8.93;;;5.25;;
55455;SDS011;63021;52.836;6.376;2023-04-05T00:20:12;8.85;;;5.65;;
55455;SDS011;63021;52.836;6.376;2023-04-05T00:22:39;7.18;;;5.35;;
55455;SDS011;63021;52.836;6.376;2023-04-05T00:25:07;14.20;;;6.40;;
55455;SDS011;63021;52.836;6.376;2023-04-05T00:27:33;9.98;;;6.25;;
55455;SDS011;63021;52.836;6.376;2023-04-05T00:29:58;8.45;;;4.93;;
55455;SDS011;63021;52.836;6.376;2023-04-05T00:32:25;10.85;;;6.22;;
55455;SDS011;63021;52.836;6.376;2023-04-05T00:34:50;7.72;;;5.03;;
55455;SDS011;63021;52.836;6.376;2023-04-05T00:37:16;7.03;;;5.43;;
55455;SDS011;63021;52.836;6.376;2023-04-05T00:39:41;9.82;;;5.93;;
55455;SDS011;63021;52.836;6.376;2023-04-05T00:42:06;7.72;;;5.47;;
55455;SDS011;63021;52.836;6.376;2023-04-05T00:44:33;11.00;;;5.40;;
55455;SDS011;63021;52.836;6.376;2023-04-05T00:47:08;7.63;;;5.80;;
55455;SDS011;63021;52.836;6.376;2023-04-05T00:49:35;9.70;;;5.65;;
55455;SDS011;63021;52.836;6.376;2023-04-05T00:52:02;10.02;;;5.45;;
55455;SDS011;63021;52.836;6.376;2023-04-05T00:54:28;9.93;;;5.20;;
55455;SDS011;63021;52.836;6.376;2023-04-05T00:56:55;9.40;;;5.82;;
55455;SDS011;63021;52.836;6.376;2023-04-05T00:59:21;10.15;;;5.80;;
55455;SDS011;63021;52.836;6.376;2023-04-05T01:01:47;10.25;;;6.75;;
55455;SDS011;63021;52.836;6.376;2023-04-05T01:04:24;9.68;;;5.20;;
55455;SDS011;63021;52.836;6.376;2023-04-05T01:06:52;9.60;;;5.70;;
55455;SDS011;63021;52.836;6.376;2023-04-05T01:12:08;6.32;;;4.95;;
55455;SDS011;63021;52.836;6.376;2023-04-05T01:14:49;8.95;;;5.13;;
55455;SDS011;63021;52.836;6.376;2023-04-05T01:17:16;6.05;;;5.05;;
55455;SDS011;63021;52.836;6.376;2023-04-05T01:19:52;8.77;;;5.10;;
55455;SDS011;63021;52.836;6.376;2023-04-05T01:30:43;10.13;;;5.25;;
55455;SDS011;63021;52.836;6.376;2023-04-05T01:33:34;11.02;;;5.22;;
55455;SDS011;63021;52.836;6.376;2023-04-05T01:38:56;8.13;;;5.45;;
55455;SDS011;63021;52.836;6.376;2023-04-05T01:41:24;9.75;;;5.22;;
55455;SDS011;63021;52.836;6.376;2023-04-05T01:43:51;7.80;;;5.25;;
55455;SDS011;63021;52.836;6.376;2023-04-05T01:46:16;10.05;;;5.97;;
55455;SDS011;63021;52.836;6.376;2023-04-05T01:48:41;9.75;;;5.18;;
55455;SDS011;63021;52.836;6.376;2023-04-05T01:51:07;12.23;;;6.18;;
55455;SDS011;63021;52.836;6.376;2023-04-05T01:53:32;6.38;;;5.35;;
55455;SDS011;63021;52.836;6.376;2023-04-05T01:56:01;8.48;;;5.65;;
55455;SDS011;63021;52.836;6.376;2023-04-05T01:58:26;7.13;;;5.75;;
55455;SDS011;63021;52.836;6.376;2023-04-05T02:00:55;7.18;;;4.30;;
55455;SDS011;63021;52.836;6.376;2023-04-05T02:03:24;8.00;;;6.00;;
55455;SDS011;63021;52.836;6.376;2023-04-05T02:05:49;8.98;;;5.43;;
55455;SDS011;63021;52.836;6.376;2023-04-05T02:08:15;9.82;;;5.10;;
55455;SDS011;63021;52.836;6.376;2023-04-05T02:10:41;8.27;;;4.65;;
55455;SDS011;63021;52.836;6.376;2023-04-05T02:13:06;9.13;;;4.90;;
55455;SDS011;63021;52.836;6.376;2023-04-05T02:15:32;7.95;;;4.65;;
55455;SDS011;63021;52.836;6.376;2023-04-05T02:18:01;9.13;;;4.93;;
55455;SDS011;63021;52.836;6.376;2023-04-05T02:20:26;6.53;;;5.35;;
55455;SDS011;63021;52.836;6.376;2023-04-05T02:22:52;9.60;;;5.65;;
55455;SDS011;63021;52.836;6.376;2023-04-05T02:25:18;6.97;;;4.93;;
55455;SDS011;63021;52.836;6.376;2023-04-05T02:27:44;8.90;;;4.72;;
55455;SDS011;63021;52.836;6.376;2023-04-05T02:30:09;8.82;;;5.78;;
55455;SDS011;63021;52.836;6.376;2023-04-05T02:32:38;7.00;;;5.40;;
55455;SDS011;63021;52.836;6.376;2023-04-05T02:35:04;11.05;;;4.65;;
55455;SDS011;63021;52.836;6.376;2023-04-05T02:37:29;8.45;;;5.38;;
55455;SDS011;63021;52.836;6.376;2023-04-05T02:39:55;8.20;;;5.13;;
55455;SDS011;63021;52.836;6.376;2023-04-05T02:42:20;9.05;;;5.15;;
55455;SDS011;63021;52.836;6.376;2023-04-05T02:44:45;6.95;;;5.18;;
55455;SDS011;63021;52.836;6.376;2023-04-05T02:47:11;9.57;;;5.45;;
55455;SDS011;63021;52.836;6.376;2023-04-05T02:49:36;12.77;;;5.32;;
55455;SDS011;63021;52.836;6.376;2023-04-05T02:52:01;10.75;;;4.85;;
55455;SDS011;63021;52.836;6.376;2023-04-05T02:54:27;8.82;;;5.30;;
55455;SDS011;63021;52.836;6.376;2023-04-05T02:56:52;11.32;;;5.30;;
55455;SDS011;63021;52.836;6.376;2023-04-05T02:59:18;10.57;;;5.10;;
55455;SDS011;63021;52.836;6.376;2023-04-05T03:01:45;8.80;;;5.47;;
55455;SDS011;63021;52.836;6.376;2023-04-05T03:04:10;10.75;;;5.28;;
55455;SDS011;63021;52.836;6.376;2023-04-05T03:06:41;11.10;;;5.53;;
55455;SDS011;63021;52.836;6.376;2023-04-05T03:09:10;10.35;;;5.63;;
55455;SDS011;63021;52.836;6.376;2023-04-05T03:11:35;8.32;;;5.30;;
55455;SDS011;63021;52.836;6.376;2023-04-05T03:14:01;13.90;;;5.78;;
55455;SDS011;63021;52.836;6.376;2023-04-05T03:16:26;7.50;;;5.43;;
55455;SDS011;63021;52.836;6.376;2023-04-05T03:18:52;8.63;;;5.45;;
55455;SDS011;63021;52.836;6.376;2023-04-05T03:21:17;9.02;;;5.38;;
55455;SDS011;63021;52.836;6.376;2023-04-05T03:23:43;8.02;;;5.45;;
55455;SDS011;63021;52.836;6.376;2023-04-05T03:26:12;7.45;;;5.07;;
55455;SDS011;63021;52.836;6.376;2023-04-05T03:28:38;8.98;;;5.40;;
55455;SDS011;63021;52.836;6.376;2023-04-05T03:31:09;8.40;;;5.95;;
55455;SDS011;63021;52.836;6.376;2023-04-05T03:33:37;8.18;;;5.72;;
55455;SDS011;63021;52.836;6.376;2023-04-05T03:36:03;8.32;;;4.78;;
55455;SDS011;63021;52.836;6.376;2023-04-05T03:38:29;12.43;;;6.80;;
55455;SDS011;63021;52.836;6.376;2023-04-05T03:40:56;9.85;;;6.35;;
55455;SDS011;63021;52.836;6.376;2023-04-05T03:43:22;9.70;;;6.32;;
55455;SDS011;63021;52.836;6.376;2023-04-05T03:45:47;8.00;;;5.70;;
55455;SDS011;63021;52.836;6.376;2023-04-05T03:48:13;11.13;;;6.60;;
55455;SDS011;63021;52.836;6.376;2023-04-05T03:50:38;10.73;;;6.30;;
55455;SDS011;63021;52.836;6.376;2023-04-05T03:53:03;9.10;;;6.03;;
55455;SDS011;63021;52.836;6.376;2023-04-05T03:55:30;15.02;;;7.03;;
55455;SDS011;63021;52.836;6.376;2023-04-05T03:57:55;13.05;;;7.25;;
55455;SDS011;63021;52.836;6.376;2023-04-05T04:00:21;14.27;;;7.50;;
55455;SDS011;63021;52.836;6.376;2023-04-05T04:02:47;13.63;;;6.32;;
55455;SDS011;63021;52.836;6.376;2023-04-05T04:05:14;13.07;;;7.63;;
55455;SDS011;63021;52.836;6.376;2023-04-05T04:07:41;8.15;;;5.88;;
55455;SDS011;63021;52.836;6.376;2023-04-05T04:10:08;10.75;;;6.50;;
55455;SDS011;63021;52.836;6.376;2023-04-05T04:12:35;16.00;;;8.10;;
55455;SDS011;63021;52.836;6.376;2023-04-05T04:15:01;10.38;;;6.93;;
55455;SDS011;63021;52.836;6.376;2023-04-05T04:17:31;13.02;;;7.40;;
55455;SDS011;63021;52.836;6.376;2023-04-05T04:19:57;11.23;;;7.40;;
55455;SDS011;63021;52.836;6.376;2023-04-05T04:22:23;12.52;;;7.18;;
55455;SDS011;63021;52.836;6.376;2023-04-05T04:24:59;12.73;;;7.43;;
55455;SDS011;63021;52.836;6.376;2023-04-05T04:27:27;12.48;;;6.97;;
55455;SDS011;63021;52.836;6.376;2023-04-05T04:29:54;13.00;;;7.88;;
55455;SDS011;63021;52.836;6.376;2023-04-05T04:32:25;10.20;;;7.20;;
55455;SDS011;63021;52.836;6.376;2023-04-05T04:35:12;10.85;;;6.15;;
55455;SDS011;63021;52.836;6.376;2023-04-05T04:37:43;8.85;;;6.55;;
55455;SDS011;63021;52.836;6.376;2023-04-05T04:40:10;10.73;;;6.65;;
55455;SDS011;63021;52.836;6.376;2023-04-05T04:42:39;10.75;;;7.13;;
55455;SDS011;63021;52.836;6.376;2023-04-05T04:45:08;9.57;;;6.65;;
55455;SDS011;63021;52.836;6.376;2023-04-05T04:47:35;11.90;;;7.38;;
55455;SDS011;63021;52.836;6.376;2023-04-05T04:50:01;10.95;;;7.22;;
55455;SDS011;63021;52.836;6.376;2023-04-05T04:52:28;13.15;;;7.88;;
55455;SDS011;63021;52.836;6.376;2023-04-05T04:54:54;10.60;;;6.60;;
55455;SDS011;63021;52.836;6.376;2023-04-05T04:57:19;10.25;;;7.18;;
55455;SDS011;63021;52.836;6.376;2023-04-05T04:59:45;14.15;;;6.35;;
55455;SDS011;63021;52.836;6.376;2023-04-05T05:02:10;9.43;;;6.35;;
55455;SDS011;63021;52.836;6.376;2023-04-05T05:04:35;12.45;;;6.95;;
55455;SDS011;63021;52.836;6.376;2023-04-05T05:07:01;10.95;;;6.57;;
55455;SDS011;63021;52.836;6.376;2023-04-05T05:09:26;9.13;;;6.20;;
55455;SDS011;63021;52.836;6.376;2023-04-05T05:11:51;10.50;;;6.50;;
55455;SDS011;63021;52.836;6.376;2023-04-05T05:14:17;9.23;;;6.90;;
55455;SDS011;63021;52.836;6.376;2023-04-05T05:16:42;11.60;;;7.40;;
55455;SDS011;63021;52.836;6.376;2023-04-05T05:19:08;14.07;;;7.07;;
55455;SDS011;63021;52.836;6.376;2023-04-05T05:21:33;13.60;;;8.82;;
55455;SDS011;63021;52.836;6.376;2023-04-05T05:24:00;7.78;;;6.50;;
55455;SDS011;63021;52.836;6.376;2023-04-05T05:26:25;9.55;;;6.95;;
55455;SDS011;63021;52.836;6.376;2023-04-05T05:28:51;9.52;;;6.05;;
55455;SDS011;63021;52.836;6.376;2023-04-05T05:31:17;10.00;;;6.25;;
55455;SDS011;63021;52.836;6.376;2023-04-05T05:33:43;9.75;;;5.93;;
55455;SDS011;63021;52.836;6.376;2023-04-05T05:36:13;8.02;;;5.60;;
55455;SDS011;63021;52.836;6.376;2023-04-05T05:38:38;9.48;;;6.70;;
55455;SDS011;63021;52.836;6.376;2023-04-05T05:41:04;9.60;;;6.32;;
55455;SDS011;63021;52.836;6.376;2023-04-05T05:43:29;9.50;;;5.95;;
55455;SDS011;63021;52.836;6.376;2023-04-05T05:45:55;10.45;;;7.00;;
55455;SDS011;63021;52.836;6.376;2023-04-05T05:48:20;10.20;;;6.57;;
55455;SDS011;63021;52.836;6.376;2023-04-05T05:50:45;11.20;;;6.68;;
55455;SDS011;63021;52.836;6.376;2023-04-05T05:53:12;11.43;;;7.32;;
55455;SDS011;63021;52.836;6.376;2023-04-05T05:55:38;11.15;;;7.00;;
55455;SDS011;63021;52.836;6.376;2023-04-05T05:58:03;13.00;;;7.57;;
55455;SDS011;63021;52.836;6.376;2023-04-05T06:00:29;12.13;;;7.38;;
55455;SDS011;63021;52.836;6.376;2023-04-05T06:02:54;12.35;;;8.63;;
55455;SDS011;63021;52.836;6.376;2023-04-05T06:05:19;14.30;;;8.05;;
55455;SDS011;63021;52.836;6.376;2023-04-05T06:07:45;19.60;;;10.43;;
55455;SDS011;63021;52.836;6.376;2023-04-05T06:10:11;18.30;;;12.18;;
55455;SDS011;63021;52.836;6.376;2023-04-05T06:12:37;16.50;;;10.27;;
55455;SDS011;63021;52.836;6.376;2023-04-05T06:15:03;15.55;;;9.32;;
55455;SDS011;63021;52.836;6.376;2023-04-05T06:17:28;14.10;;;8.32;;
55455;SDS011;63021;52.836;6.376;2023-04-05T06:19:54;11.98;;;8.23;;
55455;SDS011;63021;52.836;6.376;2023-04-05T06:22:19;14.57;;;8.07;;
55455;SDS011;63021;52.836;6.376;2023-04-05T06:24:46;18.35;;;9.93;;
55455;SDS011;63021;52.836;6.376;2023-04-05T06:27:12;23.48;;;11.10;;
55455;SDS011;63021;52.836;6.376;2023-04-05T06:29:38;18.33;;;10.60;;
55455;SDS011;63021;52.836;6.376;2023-04-05T06:32:04;17.77;;;9.88;;
55455;SDS011;63021;52.836;6.376;2023-04-05T06:34:29;17.20;;;11.05;;
55455;SDS011;63021;52.836;6.376;2023-04-05T06:36:54;17.83;;;10.60;;
55455;SDS011;63021;52.836;6.376;2023-04-05T06:39:20;16.73;;;10.80;;
55455;SDS011;63021;52.836;6.376;2023-04-05T06:41:46;17.38;;;10.35;;
55455;SDS011;63021;52.836;6.376;2023-04-05T06:44:11;19.92;;;10.77;;
55455;SDS011;63021;52.836;6.376;2023-04-05T06:46:36;14.13;;;9.88;;
55455;SDS011;63021;52.836;6.376;2023-04-05T06:49:02;15.20;;;10.40;;
55455;SDS011;63021;52.836;6.376;2023-04-05T06:51:27;14.95;;;10.52;;
55455;SDS011;63021;52.836;6.376;2023-04-05T06:53:54;18.35;;;9.73;;
55455;SDS011;63021;52.836;6.376;2023-04-05T06:56:19;20.27;;;10.80;;
55455;SDS011;63021;52.836;6.376;2023-04-05T06:58:45;15.98;;;9.60;;
55455;SDS011;63021;52.836;6.376;2023-04-05T07:01:11;23.90;;;13.00;;
55455;SDS011;63021;52.836;6.376;2023-04-05T07:03:36;18.63;;;11.88;;
55455;SDS011;63021;52.836;6.376;2023-04-05T07:06:02;14.98;;;10.68;;
55455;SDS011;63021;52.836;6.376;2023-04-05T07:08:29;16.38;;;11.18;;
55455;SDS011;63021;52.836;6.376;2023-04-05T07:10:56;15.43;;;11.32;;
55455;SDS011;63021;52.836;6.376;2023-04-05T07:13:22;16.42;;;11.27;;
55455;SDS011;63021;52.836;6.376;2023-04-05T07:15:48;18.50;;;11.70;;
55455;SDS011;63021;52.836;6.376;2023-04-05T07:18:14;20.02;;;11.23;;
55455;SDS011;63021;52.836;6.376;2023-04-05T07:20:46;15.93;;;10.30;;
55455;SDS011;63021;52.836;6.376;2023-04-05T07:23:12;18.05;;;10.10;;
55455;SDS011;63021;52.836;6.376;2023-04-05T07:25:40;14.68;;;10.02;;
55455;SDS011;63021;52.836;6.376;2023-04-05T07:28:06;14.38;;;10.55;;
55455;SDS011;63021;52.836;6.376;2023-04-05T07:30:31;16.35;;;10.85;;
55455;SDS011;63021;52.836;6.376;2023-04-05T07:32:57;16.95;;;9.68;;
55455;SDS011;63021;52.836;6.376;2023-04-05T07:35:22;17.17;;;11.05;;
55455;SDS011;63021;52.836;6.376;2023-04-05T07:37:48;14.68;;;10.10;;
55455;SDS011;63021;52.836;6.376;2023-04-05T07:40:14;16.50;;;11.15;;
55455;SDS011;63021;52.836;6.376;2023-04-05T07:42:39;12.65;;;9.80;;
55455;SDS011;63021;52.836;6.376;2023-04-05T07:45:05;14.68;;;9.60;;
55455;SDS011;63021;52.836;6.376;2023-04-05T07:47:34;13.13;;;10.13;;
55455;SDS011;63021;52.836;6.376;2023-04-05T07:49:59;13.85;;;10.32;;
55455;SDS011;63021;52.836;6.376;2023-04-05T07:52:25;16.50;;;10.38;;
55455;SDS011;63021;52.836;6.376;2023-04-05T07:54:50;13.38;;;9.77;;
55455;SDS011;63021;52.836;6.376;2023-04-05T07:57:16;16.50;;;9.82;;
55455;SDS011;63021;52.836;6.376;2023-04-05T07:59:42;16.90;;;10.95;;
55455;SDS011;63021;52.836;6.376;2023-04-05T08:02:08;19.13;;;10.10;;
55455;SDS011;63021;52.836;6.376;2023-04-05T08:04:33;19.58;;;10.80;;
55455;SDS011;63021;52.836;6.376;2023-04-05T08:06:58;19.02;;;9.52;;
55455;SDS011;63021;52.836;6.376;2023-04-05T08:09:24;15.23;;;10.13;;
55455;SDS011;63021;52.836;6.376;2023-04-05T08:11:49;12.70;;;9.30;;
55455;SDS011;63021;52.836;6.376;2023-04-05T08:14:15;15.85;;;9.05;;
55455;SDS011;63021;52.836;6.376;2023-04-05T08:16:41;12.15;;;8.02;;
55455;SDS011;63021;52.836;6.376;2023-04-05T08:19:07;13.57;;;9.57;;
55455;SDS011;63021;52.836;6.376;2023-04-05T08:21:32;14.57;;;9.38;;
55455;SDS011;63021;52.836;6.376;2023-04-05T08:23:58;9.95;;;7.90;;
55455;SDS011;63021;52.836;6.376;2023-04-05T08:26:24;16.38;;;10.70;;
55455;SDS011;63021;52.836;6.376;2023-04-05T08:28:49;11.93;;;7.50;;
55455;SDS011;63021;52.836;6.376;2023-04-05T08:31:16;10.93;;;8.40;;
55455;SDS011;63021;52.836;6.376;2023-04-05T08:33:41;9.93;;;6.95;;
55455;SDS011;63021;52.836;6.376;2023-04-05T08:36:07;9.90;;;6.57;;
55455;SDS011;63021;52.836;6.376;2023-04-05T08:38:34;11.77;;;6.03;;
55455;SDS011;63021;52.836;6.376;2023-04-05T08:41:34;8.13;;;6.00;;
55455;SDS011;63021;52.836;6.376;2023-04-05T08:44:02;10.93;;;6.70;;
55455;SDS011;63021;52.836;6.376;2023-04-05T08:46:29;10.40;;;6.80;;
55455;SDS011;63021;52.836;6.376;2023-04-05T08:48:56;9.30;;;6.13;;
55455;SDS011;63021;52.836;6.376;2023-04-05T08:51:23;8.45;;;6.20;;
55455;SDS011;63021;52.836;6.376;2023-04-05T08:53:50;6.82;;;5.00;;
55455;SDS011;63021;52.836;6.376;2023-04-05T08:56:20;8.32;;;5.43;;
55455;SDS011;63021;52.836;6.376;2023-04-05T08:59:10;6.43;;;5.05;;
55455;SDS011;63021;52.836;6.376;2023-04-05T09:01:41;8.70;;;4.97;;
55455;SDS011;63021;52.836;6.376;2023-04-05T09:04:10;8.60;;;6.00;;
55455;SDS011;63021;52.836;6.376;2023-04-05T09:06:39;7.10;;;5.57;;
55455;SDS011;63021;52.836;6.376;2023-04-05T09:09:05;7.68;;;5.55;;
55455;SDS011;63021;52.836;6.376;2023-04-05T09:11:32;9.90;;;6.10;;
55455;SDS011;63021;52.836;6.376;2023-04-05T09:14:01;6.20;;;5.00;;
55455;SDS011;63021;52.836;6.376;2023-04-05T09:16:28;8.77;;;5.10;;
55455;SDS011;63021;52.836;6.376;2023-04-05T09:18:53;7.72;;;5.55;;
55455;SDS011;63021;52.836;6.376;2023-04-05T09:21:18;7.25;;;5.18;;
55455;SDS011;63021;52.836;6.376;2023-04-05T09:23:51;6.70;;;4.40;;
55455;SDS011;63021;52.836;6.376;2023-04-05T09:28:49;6.80;;;4.25;;
55455;SDS011;63021;52.836;6.376;2023-04-05T09:31:31;7.95;;;4.32;;
55455;SDS011;63021;52.836;6.376;2023-04-05T09:34:02;6.65;;;4.60;;
55455;SDS011;63021;52.836;6.376;2023-04-05T09:36:28;8.73;;;5.00;;
55455;SDS011;63021;52.836;6.376;2023-04-05T09:39:03;5.00;;;4.50;;
55455;SDS011;63021;52.836;6.376;2023-04-05T09:41:33;9.95;;;5.72;;
55455;SDS011;63021;52.836;6.376;2023-04-05T09:44:01;5.53;;;4.95;;
55455;SDS011;63021;52.836;6.376;2023-04-05T09:46:30;8.35;;;5.22;;
55455;SDS011;63021;52.836;6.376;2023-04-05T09:48:58;7.78;;;5.22;;
55455;SDS011;63021;52.836;6.376;2023-04-05T09:51:24;8.05;;;5.80;;
55455;SDS011;63021;52.836;6.376;2023-04-05T09:56:26;7.75;;;5.30;;
55455;SDS011;63021;52.836;6.376;2023-04-05T09:58:52;10.82;;;5.78;;
55455;SDS011;63021;52.836;6.376;2023-04-05T10:01:31;7.40;;;5.67;;
55455;SDS011;63021;52.836;6.376;2023-04-05T10:03:57;8.45;;;6.00;;
55455;SDS011;63021;52.836;6.376;2023-04-05T10:06:40;5.13;;;4.63;;
55455;SDS011;63021;52.836;6.376;2023-04-05T10:09:07;8.23;;;4.85;;
55455;SDS011;63021;52.836;6.376;2023-04-05T10:11:34;8.73;;;4.72;;
55455;SDS011;63021;52.836;6.376;2023-04-05T10:14:01;9.52;;;4.30;;
55455;SDS011;63021;52.836;6.376;2023-04-05T10:16:32;7.43;;;4.43;;
55455;SDS011;63021;52.836;6.376;2023-04-05T10:19:02;8.02;;;5.18;;
55455;SDS011;63021;52.836;6.376;2023-04-05T10:21:32;7.85;;;4.88;;
55455;SDS011;63021;52.836;6.376;2023-04-05T10:24:02;8.13;;;4.65;;
55455;SDS011;63021;52.836;6.376;2023-04-05T10:27:08;4.22;;;3.83;;
55455;SDS011;63021;52.836;6.376;2023-04-05T10:38:24;6.13;;;4.07;;
55455;SDS011;63021;52.836;6.376;2023-04-05T10:40:56;7.38;;;4.90;;
55455;SDS011;63021;52.836;6.376;2023-04-05T10:43:29;6.55;;;4.47;;
55455;SDS011;63021;52.836;6.376;2023-04-05T10:45:59;5.50;;;4.18;;
55455;SDS011;63021;52.836;6.376;2023-04-05T10:50:55;9.57;;;4.38;;
55455;SDS011;63021;52.836;6.376;2023-04-05T10:53:24;8.13;;;4.65;;
55455;SDS011;63021;52.836;6.376;2023-04-05T10:55:49;5.15;;;4.65;;
55455;SDS011;63021;52.836;6.376;2023-04-05T10:58:16;9.45;;;4.93;;
55455;SDS011;63021;52.836;6.376;2023-04-05T11:00:43;6.72;;;4.47;;
55455;SDS011;63021;52.836;6.376;2023-04-05T11:03:10;7.30;;;4.90;;
55455;SDS011;63021;52.836;6.376;2023-04-05T11:06:18;8.75;;;4.75;;
55455;SDS011;63021;52.836;6.376;2023-04-05T11:08:47;4.80;;;3.50;;
55455;SDS011;63021;52.836;6.376;2023-04-05T11:11:15;6.15;;;4.28;;
55455;SDS011;63021;52.836;6.376;2023-04-05T11:13:49;5.97;;;4.90;;
55455;SDS011;63021;52.836;6.376;2023-04-05T11:16:15;6.57;;;4.60;;
55455;SDS011;63021;52.836;6.376;2023-04-05T11:18:45;7.55;;;4.72;;
55455;SDS011;63021;52.836;6.376;2023-04-05T11:21:22;6.50;;;4.65;;
55455;SDS011;63021;52.836;6.376;2023-04-05T11:23:59;8.43;;;4.63;;
55455;SDS011;63021;52.836;6.376;2023-04-05T11:29:18;9.63;;;4.80;;
55455;SDS011;63021;52.836;6.376;2023-04-05T11:32:10;6.93;;;4.68;;
55455;SDS011;63021;52.836;6.376;2023-04-05T11:34:36;5.40;;;4.78;;
55455;SDS011;63021;52.836;6.376;2023-04-05T11:37:01;6.82;;;4.70;;
55455;SDS011;63021;52.836;6.376;2023-04-05T11:39:27;7.50;;;4.90;;
55455;SDS011;63021;52.836;6.376;2023-04-05T11:42:06;7.63;;;4.75;;
55455;SDS011;63021;52.836;6.376;2023-04-05T11:47:05;5.45;;;4.63;;
55455;SDS011;63021;52.836;6.376;2023-04-05T11:49:32;6.75;;;5.22;;
55455;SDS011;63021;52.836;6.376;2023-04-05T11:51:57;6.30;;;4.90;;
55455;SDS011;63021;52.836;6.376;2023-04-05T11:54:32;10.43;;;5.18;;
55455;SDS011;63021;52.836;6.376;2023-04-05T11:56:58;9.13;;;4.53;;
55455;SDS011;63021;52.836;6.376;2023-04-05T11:59:31;6.03;;;4.63;;
55455;SDS011;63021;52.836;6.376;2023-04-05T12:01:57;7.35;;;4.28;;
55455;SDS011;63021;52.836;6.376;2023-04-05T12:04:27;6.70;;;4.07;;
55455;SDS011;63021;52.836;6.376;2023-04-05T12:12:24;7.88;;;4.50;;
55455;SDS011;63021;52.836;6.376;2023-04-05T12:14:49;10.18;;;4.78;;
55455;SDS011;63021;52.836;6.376;2023-04-05T12:17:15;8.13;;;4.53;;
55455;SDS011;63021;52.836;6.376;2023-04-05T12:19:41;5.95;;;4.70;;
55455;SDS011;63021;52.836;6.376;2023-04-05T12:22:09;5.28;;;4.68;;
55455;SDS011;63021;52.836;6.376;2023-04-05T12:24:34;6.60;;;4.28;;
55455;SDS011;63021;52.836;6.376;2023-04-05T12:27:00;5.88;;;4.45;;
55455;SDS011;63021;52.836;6.376;2023-04-05T12:29:25;6.60;;;4.97;;
55455;SDS011;63021;52.836;6.376;2023-04-05T12:31:53;7.10;;;4.30;;
55455;SDS011;63021;52.836;6.376;2023-04-05T12:34:23;7.70;;;4.53;;
55455;SDS011;63021;52.836;6.376;2023-04-05T12:36:51;6.15;;;4.28;;
55455;SDS011;63021;52.836;6.376;2023-04-05T12:39:17;6.13;;;4.07;;
55455;SDS011;63021;52.836;6.376;2023-04-05T12:41:42;5.88;;;4.43;;
55455;SDS011;63021;52.836;6.376;2023-04-05T12:44:14;4.63;;;4.18;;
55455;SDS011;63021;52.836;6.376;2023-04-05T12:46:41;4.05;;;3.70;;
55455;SDS011;63021;52.836;6.376;2023-04-05T12:49:12;7.90;;;4.53;;
55455;SDS011;63021;52.836;6.376;2023-04-05T12:51:42;8.60;;;5.50;;
55455;SDS011;63021;52.836;6.376;2023-04-05T12:54:11;5.20;;;3.90;;
55455;SDS011;63021;52.836;6.376;2023-04-05T12:56:41;7.85;;;4.50;;
55455;SDS011;63021;52.836;6.376;2023-04-05T12:59:16;5.35;;;4.30;;
55455;SDS011;63021;52.836;6.376;2023-04-05T13:01:49;5.75;;;4.15;;
55455;SDS011;63021;52.836;6.376;2023-04-05T13:04:15;6.28;;;4.20;;
55455;SDS011;63021;52.836;6.376;2023-04-05T13:06:40;7.40;;;4.18;;
55455;SDS011;63021;52.836;6.376;2023-04-05T13:09:12;6.55;;;5.03;;
55455;SDS011;63021;52.836;6.376;2023-04-05T13:11:46;4.15;;;3.75;;
55455;SDS011;63021;52.836;6.376;2023-04-05T13:14:13;5.93;;;3.55;;
55455;SDS011;63021;52.836;6.376;2023-04-05T13:16:39;7.00;;;4.60;;
55455;SDS011;63021;52.836;6.376;2023-04-05T13:19:11;4.60;;;3.60;;
55455;SDS011;63021;52.836;6.376;2023-04-05T13:21:55;5.38;;;3.97;;
55455;SDS011;63021;52.836;6.376;2023-04-05T13:24:20;5.03;;;4.13;;
55455;SDS011;63021;52.836;6.376;2023-04-05T13:26:47;5.65;;;4.22;;
55455;SDS011;63021;52.836;6.376;2023-04-05T13:29:15;5.28;;;3.95;;
55455;SDS011;63021;52.836;6.376;2023-04-05T13:31:40;4.40;;;3.58;;
55455;SDS011;63021;52.836;6.376;2023-04-05T13:34:06;6.15;;;3.88;;
55455;SDS011;63021;52.836;6.376;2023-04-05T13:36:54;6.10;;;4.25;;
55455;SDS011;63021;52.836;6.376;2023-04-05T13:39:23;5.40;;;4.35;;
55455;SDS011;63021;52.836;6.376;2023-04-05T13:41:49;4.88;;;3.92;;
55455;SDS011;63021;52.836;6.376;2023-04-05T13:44:15;4.78;;;3.90;;
55455;SDS011;63021;52.836;6.376;2023-04-05T13:46:40;5.32;;;4.03;;
55455;SDS011;63021;52.836;6.376;2023-04-05T13:49:05;6.13;;;3.60;;
55455;SDS011;63021;52.836;6.376;2023-04-05T13:51:31;5.28;;;4.22;;
55455;SDS011;63021;52.836;6.376;2023-04-05T13:53:58;6.28;;;4.30;;
55455;SDS011;63021;52.836;6.376;2023-04-05T13:56:26;4.45;;;3.78;;
55455;SDS011;63021;52.836;6.376;2023-04-05T13:58:52;9.23;;;5.07;;
55455;SDS011;63021;52.836;6.376;2023-04-05T14:01:17;5.70;;;3.95;;
55455;SDS011;63021;52.836;6.376;2023-04-05T14:04:04;5.97;;;3.70;;
55455;SDS011;63021;52.836;6.376;2023-04-05T14:06:30;5.10;;;3.80;;
55455;SDS011;63021;52.836;6.376;2023-04-05T14:08:56;5.05;;;3.35;;
55455;SDS011;63021;52.836;6.376;2023-04-05T14:11:26;6.15;;;4.25;;
55455;SDS011;63021;52.836;6.376;2023-04-05T14:13:51;4.85;;;4.28;;
55455;SDS011;63021;52.836;6.376;2023-04-05T14:16:23;9.07;;;4.18;;
55455;SDS011;63021;52.836;6.376;2023-04-05T14:18:56;5.38;;;4.03;;
55455;SDS011;63021;52.836;6.376;2023-04-05T14:21:29;4.80;;;3.60;;
55455;SDS011;63021;52.836;6.376;2023-04-05T14:23:55;9.32;;;4.05;;
55455;SDS011;63021;52.836;6.376;2023-04-05T14:26:30;5.20;;;3.92;;
55455;SDS011;63021;52.836;6.376;2023-04-05T14:28:56;4.65;;;3.65;;
55455;SDS011;63021;52.836;6.376;2023-04-05T14:31:24;5.70;;;4.00;;
55455;SDS011;63021;52.836;6.376;2023-04-05T14:34:13;7.47;;;4.45;;
55455;SDS011;63021;52.836;6.376;2023-04-05T14:36:40;4.60;;;3.90;;
55455;SDS011;63021;52.836;6.376;2023-04-05T14:39:06;4.68;;;4.18;;
55455;SDS011;63021;52.836;6.376;2023-04-05T14:41:34;6.93;;;3.78;;
55455;SDS011;63021;52.836;6.376;2023-04-05T14:44:00;5.65;;;4.10;;
55455;SDS011;63021;52.836;6.376;2023-04-05T14:46:26;4.88;;;4.03;;
55455;SDS011;63021;52.836;6.376;2023-04-05T14:48:51;4.75;;;3.55;;
55455;SDS011;63021;52.836;6.376;2023-04-05T14:51:16;6.82;;;3.95;;
55455;SDS011;63021;52.836;6.376;2023-04-05T14:53:45;4.47;;;3.50;;
55455;SDS011;63021;52.836;6.376;2023-04-05T14:56:10;7.30;;;4.80;;
55455;SDS011;63021;52.836;6.376;2023-04-05T14:58:36;6.68;;;3.65;;
55455;SDS011;63021;52.836;6.376;2023-04-05T15:01:02;5.40;;;4.10;;
55455;SDS011;63021;52.836;6.376;2023-04-05T15:03:30;6.50;;;4.25;;
55455;SDS011;63021;52.836;6.376;2023-04-05T15:05:55;5.30;;;3.40;;
55455;SDS011;63021;52.836;6.376;2023-04-05T15:08:21;8.02;;;3.15;;
55455;SDS011;63021;52.836;6.376;2023-04-05T15:10:47;6.47;;;3.60;;
55455;SDS011;63021;52.836;6.376;2023-04-05T15:13:12;6.18;;;3.55;;
55455;SDS011;63021;52.836;6.376;2023-04-05T15:15:38;5.13;;;4.13;;
55455;SDS011;63021;52.836;6.376;2023-04-05T15:18:04;6.85;;;4.30;;
55455;SDS011;63021;52.836;6.376;2023-04-05T15:20:31;4.82;;;4.03;;
55455;SDS011;63021;52.836;6.376;2023-04-05T15:22:57;6.68;;;4.03;;
55455;SDS011;63021;52.836;6.376;2023-04-05T15:25:22;5.97;;;4.00;;